createdAt,value
2023-02-06T00:01:39.967Z,100.00
2023-02-06T00:04:08.377Z,100.00
2023-02-06T00:06:42.234Z,100.00
2023-02-06T00:09:10.957Z,100.00
2023-02-06T00:11:42.330Z,100.00
2023-02-06T00:14:10.686Z,100.00
2023-02-06T00:16:58.779Z,100.00
2023-02-06T00:19:27.071Z,100.00
2023-02-06T00:21:55.889Z,100.00
2023-02-06T00:24:24.274Z,100.00
2023-02-06T00:26:53.912Z,100.00
2023-02-06T00:29:22.753Z,100.00
2023-02-06T00:31:51.869Z,100.00
2023-02-06T00:34:21.209Z,100.00
2023-02-06T00:36:52.079Z,100.00
2023-02-06T00:39:20.687Z,100.00
2023-02-06T00:41:50.379Z,100.00
2023-02-06T00:44:19.275Z,100.00
2023-02-06T00:46:47.769Z,100.00
2023-02-06T00:49:16.157Z,100.00
2023-02-06T00:51:44.941Z,100.00
2023-02-06T00:54:13.505Z,100.00
2023-02-06T00:56:43.686Z,100.00
2023-02-06T00:59:11.835Z,100.00
2023-02-06T01:01:41.197Z,100.00
2023-02-06T01:04:09.560Z,100.00
2023-02-06T01:06:59.293Z,100.00
2023-02-06T01:09:28.288Z,100.00
2023-02-06T01:11:58.279Z,100.00
2023-02-06T01:14:27.745Z,100.00
2023-02-06T01:16:56.592Z,100.00
2023-02-06T01:19:25.101Z,100.00
2023-02-06T01:21:53.582Z,100.00
2023-02-06T01:24:22.133Z,100.00
2023-02-06T01:26:50.738Z,100.00
2023-02-06T01:29:19.492Z,100.00
2023-02-06T01:31:48.256Z,100.00
2023-02-06T01:34:16.519Z,100.00
2023-02-06T01:36:44.759Z,100.00
2023-02-06T01:39:13.176Z,100.00
2023-02-06T01:41:41.586Z,100.00
2023-02-06T01:44:30.465Z,100.00
2023-02-06T01:46:59.651Z,100.00
2023-02-06T01:49:29.407Z,100.00
2023-02-06T01:52:20.364Z,100.00
2023-02-06T01:54:52.141Z,100.00
2023-02-06T01:57:20.731Z,100.00
2023-02-06T01:59:51.808Z,100.00
2023-02-06T02:02:20.262Z,100.00
2023-02-06T02:04:48.632Z,100.00
2023-02-06T02:07:32.579Z,100.00
2023-02-06T02:10:02.784Z,100.00
2023-02-06T02:12:35.011Z,100.00
2023-02-06T02:15:03.783Z,100.00
2023-02-06T02:17:51.159Z,100.00
2023-02-06T02:20:41.484Z,100.00
2023-02-06T02:23:12.905Z,100.00
2023-02-06T02:26:07.203Z,100.00
2023-02-06T02:28:58.903Z,100.00
2023-02-06T02:32:04.324Z,100.00
2023-02-06T02:34:46.958Z,100.00
2023-02-06T02:37:24.368Z,100.00
2023-02-06T02:40:23.243Z,100.00
2023-02-06T02:42:58.661Z,100.00
2023-02-06T02:45:39.259Z,100.00
2023-02-06T02:48:35.245Z,100.00
2023-02-06T02:51:03.555Z,100.00
2023-02-06T02:53:32.277Z,100.00
2023-02-06T02:56:00.518Z,100.00
2023-02-06T02:58:32.865Z,100.00
2023-02-06T03:01:02.860Z,100.00
2023-02-06T03:03:31.788Z,100.00
2023-02-06T03:06:14.940Z,100.00
2023-02-06T03:09:02.120Z,100.00
2023-02-06T03:11:31.240Z,100.00
2023-02-06T03:14:03.583Z,100.00
2023-02-06T03:16:46.251Z,100.00
2023-02-06T03:19:17.165Z,100.00
2023-02-06T03:21:45.362Z,100.00
2023-02-06T03:24:16.000Z,100.00
2023-02-06T03:26:44.559Z,100.00
2023-02-06T03:29:13.413Z,100.00
2023-02-06T03:31:59.641Z,100.00
2023-02-06T03:34:35.644Z,100.00
2023-02-06T03:37:03.969Z,100.00
2023-02-06T03:39:34.044Z,100.00
2023-02-06T03:42:02.752Z,100.00
2023-02-06T03:44:34.657Z,100.00
2023-02-06T03:47:03.153Z,100.00
2023-02-06T03:49:32.255Z,100.00
2023-02-06T03:52:06.450Z,100.00
2023-02-06T03:54:37.101Z,100.00
2023-02-06T03:57:06.422Z,100.00
2023-02-06T03:59:35.467Z,99.99
2023-02-06T04:02:04.179Z,99.87
2023-02-06T04:04:40.400Z,99.82
2023-02-06T04:07:17.036Z,98.97
2023-02-06T04:09:45.986Z,98.64
2023-02-06T04:12:15.571Z,98.42
2023-02-06T04:14:44.772Z,97.78
2023-02-06T04:17:14.506Z,97.35
2023-02-06T04:19:45.331Z,96.84
2023-02-06T04:22:14.827Z,96.71
2023-02-06T04:24:43.425Z,96.41
2023-02-06T04:27:13.098Z,96.22
2023-02-06T04:29:41.429Z,95.99
2023-02-06T04:32:09.711Z,95.88
2023-02-06T04:34:38.029Z,95.73
2023-02-06T04:37:06.869Z,95.89
2023-02-06T04:39:36.992Z,95.91
2023-02-06T04:42:06.137Z,95.67
2023-02-06T04:44:35.246Z,95.68
2023-02-06T04:47:04.106Z,95.57
2023-02-06T04:49:32.518Z,95.49
2023-02-06T04:52:00.847Z,95.43
2023-02-06T04:54:31.894Z,95.46
2023-02-06T04:57:00.988Z,95.43
2023-02-06T04:59:29.918Z,95.25
2023-02-06T05:01:58.228Z,95.19
2023-02-06T05:04:26.523Z,95.19
2023-02-06T05:06:55.964Z,95.22
2023-02-06T05:09:24.184Z,95.10
2023-02-06T05:11:52.388Z,95.18
2023-02-06T05:14:20.757Z,95.43
2023-02-06T05:16:51.950Z,95.47
2023-02-06T05:19:20.148Z,95.66
2023-02-06T05:21:48.370Z,95.74
2023-02-06T05:24:17.469Z,95.82
2023-02-06T05:26:46.673Z,96.14
2023-02-06T05:29:15.343Z,96.58
2023-02-06T05:31:44.126Z,96.83
2023-02-06T05:34:12.356Z,96.94
2023-02-06T05:36:41.123Z,97.09
2023-02-06T05:39:09.400Z,97.36
2023-02-06T05:41:37.790Z,97.77
2023-02-06T05:44:06.277Z,97.83
2023-02-06T05:46:35.250Z,97.92
2023-02-06T05:49:03.580Z,97.90
2023-02-06T05:51:32.997Z,97.78
2023-02-06T05:54:01.803Z,97.83
2023-02-06T05:56:30.063Z,97.83
2023-02-06T05:58:59.283Z,97.96
2023-02-06T06:01:29.520Z,98.12
2023-02-06T06:03:57.839Z,98.29
2023-02-06T06:06:26.307Z,98.39
2023-02-06T06:08:55.057Z,98.57
2023-02-06T06:11:23.493Z,99.02
2023-02-06T06:13:52.746Z,99.35
2023-02-06T06:16:23.147Z,99.65
2023-02-06T06:18:51.780Z,99.74
2023-02-06T06:21:20.152Z,99.95
2023-02-06T06:23:48.423Z,99.87
2023-02-06T06:26:17.098Z,99.94
2023-02-06T06:28:45.442Z,100.00
2023-02-06T06:31:15.181Z,100.00
2023-02-06T06:33:43.676Z,100.00
2023-02-06T06:36:14.369Z,100.00
2023-02-06T06:38:43.027Z,100.00
2023-02-06T06:41:11.359Z,100.00
2023-02-06T06:43:39.903Z,100.00
2023-02-06T06:46:08.618Z,99.97
2023-02-06T06:48:38.464Z,99.93
2023-02-06T06:51:06.707Z,99.90
2023-02-06T06:53:40.134Z,99.82
2023-02-06T06:56:10.176Z,99.69
2023-02-06T06:58:38.552Z,99.72
2023-02-06T07:01:07.137Z,99.66
2023-02-06T07:03:36.830Z,99.36
2023-02-06T07:06:05.532Z,99.52
2023-02-06T07:08:40.628Z,99.47
2023-02-06T07:11:10.618Z,98.93
2023-02-06T07:13:42.154Z,98.71
2023-02-06T07:16:11.288Z,98.34
2023-02-06T07:18:41.538Z,97.94
2023-02-06T07:21:10.457Z,97.40
2023-02-06T07:23:39.095Z,97.22
2023-02-06T07:26:07.588Z,96.87
2023-02-06T07:28:36.091Z,96.27
2023-02-06T07:31:05.819Z,94.79
2023-02-06T07:33:34.849Z,94.29
2023-02-06T07:36:04.227Z,94.23
2023-02-06T07:38:33.782Z,94.03
2023-02-06T07:41:02.992Z,94.12
2023-02-06T07:43:32.558Z,94.02
2023-02-06T07:46:02.041Z,92.64
2023-02-06T07:48:31.551Z,92.35
2023-02-06T07:51:07.518Z,92.55
2023-02-06T07:53:36.218Z,92.55
2023-02-06T07:56:23.743Z,92.74
2023-02-06T07:58:53.047Z,92.17
2023-02-06T08:01:23.862Z,91.68
2023-02-06T08:03:53.859Z,91.21
2023-02-06T08:06:24.369Z,90.25
2023-02-06T08:08:54.808Z,89.14
2023-02-06T08:11:25.328Z,89.02
2023-02-06T08:13:53.905Z,89.10
2023-02-06T08:16:22.891Z,89.55
2023-02-06T08:18:51.468Z,89.60
2023-02-06T08:21:21.702Z,89.29
2023-02-06T08:23:59.768Z,88.24
2023-02-06T08:26:28.880Z,87.15
2023-02-06T08:28:57.742Z,85.83
2023-02-06T08:31:31.752Z,85.87
2023-02-06T08:34:00.758Z,86.31
2023-02-06T08:36:32.678Z,85.96
2023-02-06T08:39:01.525Z,84.75
2023-02-06T08:41:37.535Z,84.02
2023-02-06T08:44:14.764Z,83.24
2023-02-06T08:46:43.795Z,83.38
2023-02-06T08:49:14.778Z,83.89
2023-02-06T08:51:44.181Z,84.29
2023-02-06T08:54:14.990Z,83.92
2023-02-06T08:56:44.230Z,83.39
2023-02-06T08:59:13.554Z,83.39
2023-02-06T09:01:42.653Z,83.37
2023-02-06T09:04:13.809Z,82.40
2023-02-06T09:06:49.208Z,82.27
2023-02-06T09:09:18.332Z,82.86
2023-02-06T09:11:47.046Z,83.33
2023-02-06T09:14:17.041Z,83.17
2023-02-06T09:16:45.762Z,83.68
2023-02-06T09:19:15.007Z,84.25
2023-02-06T09:21:43.413Z,82.29
2023-02-06T09:24:12.188Z,81.19
2023-02-06T09:26:58.444Z,82.55
2023-02-06T09:29:29.494Z,82.64
2023-02-06T09:31:58.716Z,81.77
2023-02-06T09:34:28.094Z,82.60
2023-02-06T09:36:58.013Z,82.47
2023-02-06T09:39:26.687Z,82.07
2023-02-06T09:42:00.855Z,80.15
2023-02-06T09:44:34.276Z,79.18
2023-02-06T09:47:05.304Z,78.77
2023-02-06T09:50:00.189Z,78.85
2023-02-06T09:52:52.395Z,79.01
2023-02-06T09:55:45.796Z,78.86
2023-02-06T09:58:20.785Z,79.75
2023-02-06T10:00:53.634Z,78.78
2023-02-06T10:03:34.901Z,79.05
2023-02-06T10:06:36.078Z,79.52
2023-02-06T10:09:16.900Z,78.78
2023-02-06T10:11:51.787Z,79.37
2023-02-06T10:14:35.916Z,79.93
2023-02-06T10:17:20.680Z,79.92
2023-02-06T10:19:58.345Z,79.90
2023-02-06T10:22:57.565Z,79.66
2023-02-06T10:25:33.316Z,79.36
2023-02-06T10:28:12.511Z,79.39
2023-02-06T10:31:20.099Z,79.57
2023-02-06T10:34:15.084Z,79.18
2023-02-06T10:37:07.713Z,78.39
2023-02-06T10:39:49.387Z,78.06
2023-02-06T10:42:36.227Z,78.02
2023-02-06T10:45:28.928Z,78.32
2023-02-06T10:48:16.111Z,78.11
2023-02-06T10:51:26.357Z,77.38
2023-02-06T10:53:57.928Z,75.83
2023-02-06T10:56:30.688Z,75.14
2023-02-06T10:59:01.840Z,74.59
2023-02-06T11:01:30.947Z,74.70
2023-02-06T11:04:06.380Z,74.52
2023-02-06T11:06:40.507Z,72.86
2023-02-06T11:09:10.428Z,72.85
2023-02-06T11:11:40.701Z,72.72
2023-02-06T11:14:26.573Z,71.39
2023-02-06T11:16:54.823Z,71.24
2023-02-06T11:19:33.923Z,71.02
2023-02-06T11:22:05.001Z,71.59
2023-02-06T11:24:35.590Z,72.11
2023-02-06T11:27:13.669Z,70.74
2023-02-06T11:29:48.058Z,70.70
2023-02-06T11:32:37.702Z,70.13
2023-02-06T11:35:16.104Z,69.29
2023-02-06T11:37:44.982Z,68.75
2023-02-06T11:40:19.559Z,70.07
2023-02-06T11:42:53.105Z,70.57
2023-02-06T11:45:26.276Z,70.80
2023-02-06T11:47:54.736Z,70.63
2023-02-06T11:50:34.708Z,69.54
2023-02-06T11:53:10.605Z,69.70
2023-02-06T11:55:39.791Z,70.62
2023-02-06T11:58:08.277Z,70.43
2023-02-06T12:00:38.170Z,70.03
2023-02-06T12:03:25.723Z,70.53
2023-02-06T12:05:54.367Z,71.09
2023-02-06T12:08:22.907Z,71.34
2023-02-06T12:11:00.627Z,71.30
2023-02-06T12:13:33.987Z,70.10
2023-02-06T12:16:02.898Z,70.26
2023-02-06T12:18:39.417Z,70.65
2023-02-06T12:21:11.978Z,72.33
2023-02-06T12:23:43.439Z,73.59
2023-02-06T12:26:16.606Z,73.63
2023-02-06T12:28:57.848Z,73.89
2023-02-06T12:31:44.842Z,73.69
2023-02-06T12:34:20.003Z,72.52
2023-02-06T12:37:00.426Z,71.95
2023-02-06T12:39:32.094Z,73.05
2023-02-06T12:42:24.760Z,74.40
2023-02-06T12:44:57.340Z,76.05
2023-02-06T12:47:59.818Z,76.39
2023-02-06T12:50:36.312Z,75.93
2023-02-06T12:53:18.560Z,76.11
2023-02-06T12:55:52.689Z,76.98
2023-02-06T12:58:42.775Z,77.71
2023-02-06T13:01:42.213Z,78.94
2023-02-06T13:04:14.025Z,81.23
2023-02-06T13:06:59.448Z,81.56
2023-02-06T13:09:32.859Z,81.71
2023-02-06T13:12:13.776Z,81.56
2023-02-06T13:14:50.707Z,81.72
2023-02-06T13:17:35.405Z,81.56
2023-02-06T13:20:07.396Z,79.91
2023-02-06T13:22:51.099Z,79.72
2023-02-06T13:25:31.814Z,79.48
2023-02-06T13:28:19.204Z,80.96
2023-02-06T13:31:04.430Z,83.90
2023-02-06T13:34:00.600Z,86.62
2023-02-06T13:36:44.728Z,88.08
2023-02-06T13:39:15.327Z,90.03
2023-02-06T13:41:45.773Z,92.17
2023-02-06T13:44:28.090Z,93.23
2023-02-06T13:47:19.665Z,94.29
2023-02-06T13:50:11.500Z,94.44
2023-02-06T13:52:52.793Z,94.44
2023-02-06T13:55:28.258Z,95.39
2023-02-06T13:58:28.249Z,95.66
2023-02-06T14:01:02.089Z,95.54
2023-02-06T14:03:32.836Z,94.93
2023-02-06T14:06:15.846Z,93.94
2023-02-06T14:08:46.892Z,93.42
2023-02-06T14:11:21.465Z,92.58
2023-02-06T14:14:29.706Z,92.10
2023-02-06T14:17:34.365Z,91.06
2023-02-06T14:20:28.170Z,90.47
2023-02-06T14:23:06.003Z,89.62
2023-02-06T14:25:44.522Z,89.63
2023-02-06T14:28:48.965Z,89.70
2023-02-06T14:31:29.739Z,89.44
2023-02-06T14:34:13.913Z,89.64
2023-02-06T14:36:56.969Z,88.79
2023-02-06T14:39:39.599Z,88.41
2023-02-06T14:42:41.173Z,87.87
2023-02-06T14:45:18.655Z,87.12
2023-02-06T14:47:47.169Z,86.77
2023-02-06T14:50:25.234Z,86.39
2023-02-06T14:53:03.831Z,86.05
2023-02-06T14:55:34.291Z,85.59
2023-02-06T14:58:04.302Z,85.84
2023-02-06T15:00:33.023Z,86.09
2023-02-06T15:03:08.210Z,86.31
2023-02-06T15:05:36.745Z,86.43
2023-02-06T15:08:06.292Z,87.21
2023-02-06T15:10:37.480Z,87.94
2023-02-06T15:13:21.013Z,88.60
2023-02-06T15:15:54.188Z,88.88
2023-02-06T15:18:22.488Z,89.12
2023-02-06T15:21:17.577Z,88.94
2023-02-06T15:24:01.098Z,89.22
2023-02-06T15:26:39.236Z,89.73
2023-02-06T15:29:24.151Z,89.57
2023-02-06T15:31:54.613Z,88.41
2023-02-06T15:34:24.478Z,87.78
2023-02-06T15:36:53.205Z,86.50
2023-02-06T15:39:21.988Z,84.71
2023-02-06T15:41:50.822Z,84.32
2023-02-06T15:44:22.430Z,83.70
2023-02-06T15:46:50.936Z,83.33
2023-02-06T15:49:31.234Z,83.49
2023-02-06T15:51:59.817Z,83.22
2023-02-06T15:54:28.552Z,83.03
2023-02-06T15:57:19.272Z,83.08
2023-02-06T15:59:47.666Z,82.84
2023-02-06T16:02:22.070Z,82.59
2023-02-06T16:04:52.439Z,82.44
2023-02-06T16:07:36.100Z,82.53
2023-02-06T16:10:28.868Z,82.63
2023-02-06T16:12:57.585Z,82.26
2023-02-06T16:15:32.078Z,82.50
2023-02-06T16:18:02.889Z,82.50
2023-02-06T16:20:40.400Z,82.13
2023-02-06T16:23:17.946Z,81.96
2023-02-06T16:25:48.555Z,81.86
2023-02-06T16:28:23.091Z,81.69
2023-02-06T16:31:01.946Z,82.03
2023-02-06T16:33:36.093Z,82.35
2023-02-06T16:36:04.985Z,82.51
2023-02-06T16:38:36.827Z,82.60
2023-02-06T16:41:34.499Z,82.90
2023-02-06T16:44:04.685Z,83.48
2023-02-06T16:46:34.524Z,83.97
2023-02-06T16:49:02.973Z,84.45
2023-02-06T16:51:32.549Z,84.95
2023-02-06T16:54:03.613Z,85.47
2023-02-06T16:56:32.245Z,86.07
2023-02-06T16:59:01.610Z,86.64
2023-02-06T17:01:33.008Z,87.36
2023-02-06T17:04:01.985Z,88.17
2023-02-06T17:06:30.942Z,89.11
2023-02-06T17:09:04.609Z,90.22
2023-02-06T17:11:34.066Z,91.09
2023-02-06T17:14:02.692Z,91.52
2023-02-06T17:16:32.280Z,91.93
2023-02-06T17:19:00.963Z,92.56
2023-02-06T17:21:32.938Z,93.05
2023-02-06T17:24:01.652Z,93.86
2023-02-06T17:26:30.706Z,94.51
2023-02-06T17:28:59.016Z,95.18
2023-02-06T17:31:27.974Z,95.86
2023-02-06T17:33:56.501Z,96.51
2023-02-06T17:36:30.184Z,97.31
2023-02-06T17:38:59.186Z,98.18
2023-02-06T17:41:27.988Z,98.93
2023-02-06T17:43:56.236Z,99.43
2023-02-06T17:46:24.688Z,99.91
2023-02-06T17:48:53.113Z,100.00
2023-02-06T17:51:21.368Z,99.97
2023-02-06T17:53:50.519Z,99.63
2023-02-06T17:56:19.502Z,99.19
2023-02-06T17:58:47.941Z,98.67
2023-02-06T18:01:18.625Z,97.86
2023-02-06T18:03:48.076Z,97.26
2023-02-06T18:06:17.037Z,96.54
2023-02-06T18:08:45.589Z,96.11
2023-02-06T18:11:19.728Z,95.76
2023-02-06T18:13:49.103Z,95.61
2023-02-06T18:16:22.633Z,95.53
2023-02-06T18:18:52.135Z,95.45
2023-02-06T18:21:20.850Z,95.29
2023-02-06T18:23:49.385Z,95.22
2023-02-06T18:26:17.762Z,95.12
2023-02-06T18:28:46.242Z,94.96
2023-02-06T18:31:27.327Z,94.94
2023-02-06T18:33:56.083Z,94.88
2023-02-06T18:36:24.457Z,95.11
2023-02-06T18:38:53.466Z,95.46
2023-02-06T18:41:40.536Z,95.70
2023-02-06T18:44:09.634Z,96.13
2023-02-06T18:46:39.518Z,96.38
2023-02-06T18:49:07.779Z,96.66
2023-02-06T18:51:36.242Z,97.06
2023-02-06T18:54:04.834Z,97.19
2023-02-06T18:56:35.425Z,97.23
2023-02-06T18:59:04.157Z,97.12
2023-02-06T19:01:33.254Z,97.24
2023-02-06T19:04:02.040Z,97.18
2023-02-06T19:06:35.409Z,97.35
2023-02-06T19:09:07.329Z,97.20
2023-02-06T19:11:36.071Z,96.49
2023-02-06T19:14:04.790Z,95.81
2023-02-06T19:16:38.712Z,95.65
2023-02-06T19:19:11.076Z,95.13
2023-02-06T19:21:39.325Z,94.94
2023-02-06T19:24:08.330Z,94.69
2023-02-06T19:26:36.608Z,94.40
2023-02-06T19:29:05.124Z,94.15
2023-02-06T19:31:35.162Z,93.61
2023-02-06T19:34:03.860Z,93.62
2023-02-06T19:36:32.913Z,93.52
2023-02-06T19:39:04.399Z,93.48
2023-02-06T19:41:33.506Z,93.24
2023-02-06T19:44:05.585Z,93.30
2023-02-06T19:46:34.164Z,93.47
2023-02-06T19:49:02.554Z,93.45
2023-02-06T19:51:34.547Z,93.42
2023-02-06T19:54:03.929Z,93.43
2023-02-06T19:56:36.327Z,93.54
2023-02-06T19:59:07.305Z,93.52
2023-02-06T20:01:36.277Z,93.48
2023-02-06T20:04:04.615Z,93.50
2023-02-06T20:06:35.271Z,93.67
2023-02-06T20:09:04.514Z,93.74
2023-02-06T20:11:33.766Z,93.70
2023-02-06T20:14:03.265Z,93.81
2023-02-06T20:16:33.553Z,94.02
2023-02-06T20:19:09.024Z,94.23
2023-02-06T20:21:39.321Z,94.55
2023-02-06T20:24:09.412Z,94.77
2023-02-06T20:26:39.434Z,94.91
2023-02-06T20:29:08.030Z,95.00
2023-02-06T20:31:37.176Z,94.89
2023-02-06T20:34:05.801Z,94.68
2023-02-06T20:36:35.725Z,94.44
2023-02-06T20:39:05.245Z,94.31
2023-02-06T20:41:34.505Z,94.29
2023-02-06T20:44:02.762Z,93.99
2023-02-06T20:46:32.914Z,94.07
2023-02-06T20:49:09.287Z,93.80
2023-02-06T20:51:37.916Z,93.69
2023-02-06T20:54:06.751Z,93.81
2023-02-06T20:56:35.112Z,93.89
2023-02-06T20:59:03.610Z,94.01
2023-02-06T21:01:32.162Z,94.24
2023-02-06T21:04:05.101Z,94.28
2023-02-06T21:06:34.521Z,94.66
2023-02-06T21:09:04.102Z,94.74
2023-02-06T21:11:34.627Z,94.63
2023-02-06T21:14:03.852Z,94.65
2023-02-06T21:16:33.233Z,94.76
2023-02-06T21:19:03.305Z,95.01
2023-02-06T21:21:32.076Z,94.85
2023-02-06T21:24:00.762Z,94.76
2023-02-06T21:26:29.114Z,95.06
2023-02-06T21:28:58.510Z,95.37
2023-02-06T21:31:36.899Z,95.60
2023-02-06T21:34:22.436Z,95.58
2023-02-06T21:36:51.344Z,95.72
2023-02-06T21:39:21.361Z,95.80
2023-02-06T21:41:53.944Z,95.71
2023-02-06T21:44:24.189Z,95.79
2023-02-06T21:46:52.797Z,95.75
2023-02-06T21:49:21.833Z,95.74
2023-02-06T21:51:50.669Z,95.41
2023-02-06T21:54:19.106Z,94.64
2023-02-06T21:56:47.493Z,94.81
2023-02-06T21:59:16.514Z,95.11
2023-02-06T22:01:45.204Z,95.26
2023-02-06T22:04:13.729Z,94.62
2023-02-06T22:06:42.200Z,94.10
2023-02-06T22:09:15.327Z,94.10
2023-02-06T22:11:45.372Z,94.01
2023-02-06T22:14:15.881Z,94.18
2023-02-06T22:16:48.191Z,93.64
2023-02-06T22:19:16.757Z,93.25
2023-02-06T22:21:48.961Z,92.92
2023-02-06T22:24:18.130Z,92.96
2023-02-06T22:26:46.579Z,93.07
2023-02-06T22:29:16.111Z,93.01
2023-02-06T22:31:44.905Z,92.78
2023-02-06T22:34:18.651Z,92.92
2023-02-06T22:36:51.266Z,93.02
2023-02-06T22:39:19.858Z,92.76
2023-02-06T22:41:48.350Z,92.65
2023-02-06T22:44:17.687Z,92.67
2023-02-06T22:46:48.152Z,92.56
2023-02-06T22:49:16.792Z,92.54
2023-02-06T22:51:46.825Z,92.31
2023-02-06T22:54:15.259Z,92.12
2023-02-06T22:56:46.066Z,92.28
2023-02-06T22:59:32.441Z,91.85
2023-02-06T23:02:00.828Z,91.61
2023-02-06T23:04:31.157Z,91.33
2023-02-06T23:06:59.760Z,90.97
2023-02-06T23:09:36.098Z,90.78
2023-02-06T23:12:10.428Z,90.46
2023-02-06T23:14:39.992Z,90.53
2023-02-06T23:17:10.535Z,90.52
2023-02-06T23:19:40.036Z,90.33
2023-02-06T23:22:10.811Z,89.85
2023-02-06T23:24:40.627Z,89.47
2023-02-06T23:27:10.111Z,89.61
2023-02-06T23:29:38.892Z,89.22
2023-02-06T23:32:07.112Z,89.66
2023-02-06T23:34:35.730Z,89.59
2023-02-06T23:37:04.082Z,89.40
2023-02-06T23:39:32.820Z,88.84
2023-02-06T23:42:02.047Z,88.69
2023-02-06T23:44:31.073Z,88.15
2023-02-06T23:47:00.767Z,87.90
2023-02-06T23:49:29.849Z,87.68
2023-02-06T23:51:58.610Z,87.85
2023-02-06T23:54:27.001Z,87.79
2023-02-06T23:56:55.296Z,87.69
2023-02-06T23:59:24.110Z,87.49
